sensor_id;sensor_type;location;lat;lon;timestamp;P1;durP1;ratioP1;P2;durP2;ratioP2
1134;SDS011;556;53.550;10.048;2022-09-09T00:00:14;39.33;;;12.47;;
1134;SDS011;556;53.550;10.048;2022-09-09T00:02:45;21.47;;;12.97;;
1134;SDS011;556;53.550;10.048;2022-09-09T00:05:21;24.27;;;10.57;;
1134;SDS011;556;53.550;10.048;2022-09-09T00:07:55;16.67;;;11.47;;
1134;SDS011;556;53.550;10.048;2022-09-09T00:10:30;21.80;;;13.03;;
1134;SDS011;556;53.550;10.048;2022-09-09T00:13:01;14.67;;;8.90;;
1134;SDS011;556;53.550;10.048;2022-09-09T00:15:43;17.90;;;10.53;;
1134;SDS011;556;53.550;10.048;2022-09-09T00:18:22;16.30;;;11.50;;
1134;SDS011;556;53.550;10.048;2022-09-09T00:20:55;20.13;;;14.00;;
1134;SDS011;556;53.550;10.048;2022-09-09T00:23:28;15.53;;;11.07;;
1134;SDS011;556;53.550;10.048;2022-09-09T00:25:59;20.80;;;11.20;;
1134;SDS011;556;53.550;10.048;2022-09-09T00:28:34;15.83;;;9.80;;
1134;SDS011;556;53.550;10.048;2022-09-09T00:31:09;14.17;;;9.60;;
1134;SDS011;556;53.550;10.048;2022-09-09T00:33:40;15.73;;;11.33;;
1134;SDS011;556;53.550;10.048;2022-09-09T00:36:11;13.83;;;9.63;;
1134;SDS011;556;53.550;10.048;2022-09-09T00:38:42;22.27;;;12.50;;
1134;SDS011;556;53.550;10.048;2022-09-09T00:41:17;14.60;;;9.83;;
1134;SDS011;556;53.550;10.048;2022-09-09T00:43:51;16.97;;;10.63;;
1134;SDS011;556;53.550;10.048;2022-09-09T00:46:38;16.37;;;10.30;;
1134;SDS011;556;53.550;10.048;2022-09-09T00:49:22;14.87;;;9.20;;
1134;SDS011;556;53.550;10.048;2022-09-09T00:52:02;11.20;;;9.90;;
1134;SDS011;556;53.550;10.048;2022-09-09T00:54:40;12.23;;;7.90;;
1134;SDS011;556;53.550;10.048;2022-09-09T00:57:21;16.53;;;9.47;;
1134;SDS011;556;53.550;10.048;2022-09-09T00:59:56;10.00;;;7.87;;
1134;SDS011;556;53.550;10.048;2022-09-09T01:02:45;10.90;;;6.83;;
1134;SDS011;556;53.550;10.048;2022-09-09T01:05:27;13.63;;;9.77;;
1134;SDS011;556;53.550;10.048;2022-09-09T01:08:00;10.73;;;9.00;;
1134;SDS011;556;53.550;10.048;2022-09-09T01:10:36;18.23;;;8.93;;
1134;SDS011;556;53.550;10.048;2022-09-09T01:13:13;16.20;;;9.80;;
1134;SDS011;556;53.550;10.048;2022-09-09T01:15:45;12.90;;;8.40;;
1134;SDS011;556;53.550;10.048;2022-09-09T01:18:16;10.00;;;6.77;;
1134;SDS011;556;53.550;10.048;2022-09-09T01:20:49;10.57;;;7.23;;
1134;SDS011;556;53.550;10.048;2022-09-09T01:23:32;12.70;;;10.00;;
1134;SDS011;556;53.550;10.048;2022-09-09T01:26:29;11.33;;;7.90;;
1134;SDS011;556;53.550;10.048;2022-09-09T01:29:06;12.60;;;8.60;;
1134;SDS011;556;53.550;10.048;2022-09-09T01:31:37;10.60;;;8.77;;
1134;SDS011;556;53.550;10.048;2022-09-09T01:34:10;13.60;;;9.47;;
1134;SDS011;556;53.550;10.048;2022-09-09T01:36:40;15.10;;;9.20;;
1134;SDS011;556;53.550;10.048;2022-09-09T01:39:11;11.90;;;8.83;;
1134;SDS011;556;53.550;10.048;2022-09-09T01:41:41;11.73;;;9.40;;
1134;SDS011;556;53.550;10.048;2022-09-09T01:44:12;15.33;;;10.77;;
1134;SDS011;556;53.550;10.048;2022-09-09T01:46:43;10.30;;;8.70;;
1134;SDS011;556;53.550;10.048;2022-09-09T01:49:16;15.17;;;7.00;;
1134;SDS011;556;53.550;10.048;2022-09-09T01:51:44;15.70;;;10.20;;
1134;SDS011;556;53.550;10.048;2022-09-09T01:54:18;17.10;;;10.70;;
1134;SDS011;556;53.550;10.048;2022-09-09T01:56:51;18.50;;;9.93;;
1134;SDS011;556;53.550;10.048;2022-09-09T01:59:31;15.07;;;11.90;;
1134;SDS011;556;53.550;10.048;2022-09-09T02:02:16;17.00;;;9.97;;
1134;SDS011;556;53.550;10.048;2022-09-09T02:04:56;11.80;;;7.37;;
1134;SDS011;556;53.550;10.048;2022-09-09T02:07:37;13.83;;;8.60;;
1134;SDS011;556;53.550;10.048;2022-09-09T02:10:16;11.87;;;7.87;;
1134;SDS011;556;53.550;10.048;2022-09-09T02:12:59;11.67;;;7.27;;
1134;SDS011;556;53.550;10.048;2022-09-09T02:15:32;13.20;;;8.53;;
1134;SDS011;556;53.550;10.048;2022-09-09T02:18:02;9.40;;;7.17;;
1134;SDS011;556;53.550;10.048;2022-09-09T02:20:34;10.07;;;7.57;;
1134;SDS011;556;53.550;10.048;2022-09-09T02:23:04;11.73;;;7.83;;
1134;SDS011;556;53.550;10.048;2022-09-09T02:25:34;12.47;;;8.87;;
1134;SDS011;556;53.550;10.048;2022-09-09T02:28:14;13.57;;;8.30;;
1134;SDS011;556;53.550;10.048;2022-09-09T02:30:45;12.60;;;8.70;;
1134;SDS011;556;53.550;10.048;2022-09-09T02:33:19;44.23;;;9.40;;
1134;SDS011;556;53.550;10.048;2022-09-09T02:35:49;20.87;;;8.97;;
1134;SDS011;556;53.550;10.048;2022-09-09T02:38:20;14.30;;;8.80;;
1134;SDS011;556;53.550;10.048;2022-09-09T02:41:01;9.47;;;6.87;;
1134;SDS011;556;53.550;10.048;2022-09-09T02:43:32;13.03;;;7.73;;
1134;SDS011;556;53.550;10.048;2022-09-09T02:46:03;8.70;;;6.57;;
1134;SDS011;556;53.550;10.048;2022-09-09T02:48:38;12.70;;;8.13;;
1134;SDS011;556;53.550;10.048;2022-09-09T02:51:16;4.87;;;4.20;;
1134;SDS011;556;53.550;10.048;2022-09-09T02:53:49;10.07;;;6.67;;
1134;SDS011;556;53.550;10.048;2022-09-09T02:56:25;12.27;;;8.23;;
1134;SDS011;556;53.550;10.048;2022-09-09T02:59:02;9.43;;;6.27;;
1134;SDS011;556;53.550;10.048;2022-09-09T03:01:30;7.77;;;6.33;;
1134;SDS011;556;53.550;10.048;2022-09-09T03:03:59;7.90;;;6.03;;
1134;SDS011;556;53.550;10.048;2022-09-09T03:06:26;9.23;;;5.77;;
1134;SDS011;556;53.550;10.048;2022-09-09T03:09:01;9.20;;;5.40;;
1134;SDS011;556;53.550;10.048;2022-09-09T03:11:29;4.97;;;4.50;;
1134;SDS011;556;53.550;10.048;2022-09-09T03:13:57;8.07;;;6.73;;
1134;SDS011;556;53.550;10.048;2022-09-09T03:16:27;11.57;;;7.23;;
1134;SDS011;556;53.550;10.048;2022-09-09T03:18:54;8.43;;;5.83;;
1134;SDS011;556;53.550;10.048;2022-09-09T03:21:21;6.13;;;5.30;;
1134;SDS011;556;53.550;10.048;2022-09-09T03:23:49;15.63;;;8.00;;
1134;SDS011;556;53.550;10.048;2022-09-09T03:26:16;7.43;;;6.10;;
1134;SDS011;556;53.550;10.048;2022-09-09T03:28:45;6.23;;;4.90;;
1134;SDS011;556;53.550;10.048;2022-09-09T03:31:16;9.73;;;6.67;;
1134;SDS011;556;53.550;10.048;2022-09-09T03:33:46;7.70;;;5.47;;
1134;SDS011;556;53.550;10.048;2022-09-09T03:36:15;9.40;;;7.23;;
1134;SDS011;556;53.550;10.048;2022-09-09T03:38:42;8.47;;;6.57;;
1134;SDS011;556;53.550;10.048;2022-09-09T03:41:11;8.57;;;5.63;;
1134;SDS011;556;53.550;10.048;2022-09-09T03:43:38;8.87;;;7.07;;
1134;SDS011;556;53.550;10.048;2022-09-09T03:46:07;6.83;;;5.90;;
1134;SDS011;556;53.550;10.048;2022-09-09T03:48:34;7.87;;;5.03;;
1134;SDS011;556;53.550;10.048;2022-09-09T03:51:03;14.07;;;7.30;;
1134;SDS011;556;53.550;10.048;2022-09-09T03:53:32;7.37;;;6.67;;
1134;SDS011;556;53.550;10.048;2022-09-09T03:56:01;8.43;;;7.57;;
1134;SDS011;556;53.550;10.048;2022-09-09T03:58:30;11.10;;;6.93;;
1134;SDS011;556;53.550;10.048;2022-09-09T04:01:05;6.07;;;5.17;;
1134;SDS011;556;53.550;10.048;2022-09-09T04:03:35;7.40;;;6.53;;
1134;SDS011;556;53.550;10.048;2022-09-09T04:06:06;7.73;;;5.70;;
1134;SDS011;556;53.550;10.048;2022-09-09T04:08:36;9.90;;;7.07;;
1134;SDS011;556;53.550;10.048;2022-09-09T04:11:04;9.30;;;6.30;;
1134;SDS011;556;53.550;10.048;2022-09-09T04:13:33;8.97;;;7.20;;
1134;SDS011;556;53.550;10.048;2022-09-09T04:16:03;8.53;;;6.30;;
1134;SDS011;556;53.550;10.048;2022-09-09T04:18:32;7.77;;;5.60;;
1134;SDS011;556;53.550;10.048;2022-09-09T04:21:00;9.53;;;5.67;;
1134;SDS011;556;53.550;10.048;2022-09-09T04:23:31;11.17;;;6.70;;
1134;SDS011;556;53.550;10.048;2022-09-09T04:25:59;8.17;;;6.07;;
1134;SDS011;556;53.550;10.048;2022-09-09T04:28:28;7.40;;;6.67;;
1134;SDS011;556;53.550;10.048;2022-09-09T04:31:03;9.23;;;6.20;;
1134;SDS011;556;53.550;10.048;2022-09-09T04:33:31;8.17;;;5.73;;
1134;SDS011;556;53.550;10.048;2022-09-09T04:35:58;9.67;;;7.43;;
1134;SDS011;556;53.550;10.048;2022-09-09T04:38:26;6.77;;;5.20;;
1134;SDS011;556;53.550;10.048;2022-09-09T04:40:56;6.00;;;5.30;;
1134;SDS011;556;53.550;10.048;2022-09-09T04:43:24;10.83;;;6.53;;
1134;SDS011;556;53.550;10.048;2022-09-09T04:45:53;6.10;;;4.80;;
1134;SDS011;556;53.550;10.048;2022-09-09T04:48:23;7.50;;;6.20;;
1134;SDS011;556;53.550;10.048;2022-09-09T04:50:55;5.70;;;5.00;;
1134;SDS011;556;53.550;10.048;2022-09-09T04:53:23;10.17;;;7.60;;
1134;SDS011;556;53.550;10.048;2022-09-09T04:55:52;7.50;;;6.60;;
1134;SDS011;556;53.550;10.048;2022-09-09T04:58:21;8.40;;;5.03;;
1134;SDS011;556;53.550;10.048;2022-09-09T05:00:49;8.07;;;5.63;;
1134;SDS011;556;53.550;10.048;2022-09-09T05:03:17;7.10;;;5.90;;
1134;SDS011;556;53.550;10.048;2022-09-09T05:05:44;5.53;;;5.03;;
1134;SDS011;556;53.550;10.048;2022-09-09T05:08:12;6.43;;;4.23;;
1134;SDS011;556;53.550;10.048;2022-09-09T05:10:40;5.90;;;5.30;;
1134;SDS011;556;53.550;10.048;2022-09-09T05:13:08;6.20;;;5.50;;
1134;SDS011;556;53.550;10.048;2022-09-09T05:15:37;7.30;;;5.77;;
1134;SDS011;556;53.550;10.048;2022-09-09T05:18:04;9.20;;;5.33;;
1134;SDS011;556;53.550;10.048;2022-09-09T05:20:31;5.80;;;5.07;;
1134;SDS011;556;53.550;10.048;2022-09-09T05:23:00;6.87;;;6.10;;
1134;SDS011;556;53.550;10.048;2022-09-09T05:25:29;12.63;;;7.13;;
1134;SDS011;556;53.550;10.048;2022-09-09T05:27:57;4.63;;;4.23;;
1134;SDS011;556;53.550;10.048;2022-09-09T05:30:25;20.47;;;6.27;;
1134;SDS011;556;53.550;10.048;2022-09-09T05:32:56;6.17;;;5.57;;
1134;SDS011;556;53.550;10.048;2022-09-09T05:35:23;5.27;;;4.77;;
1134;SDS011;556;53.550;10.048;2022-09-09T05:37:51;10.17;;;6.47;;
1134;SDS011;556;53.550;10.048;2022-09-09T05:40:18;10.40;;;7.90;;
1134;SDS011;556;53.550;10.048;2022-09-09T05:42:47;7.90;;;5.50;;
1134;SDS011;556;53.550;10.048;2022-09-09T05:45:14;7.17;;;5.80;;
1134;SDS011;556;53.550;10.048;2022-09-09T05:47:41;8.50;;;6.60;;
1134;SDS011;556;53.550;10.048;2022-09-09T05:50:12;9.23;;;5.30;;
1134;SDS011;556;53.550;10.048;2022-09-09T05:52:40;12.00;;;5.73;;
1134;SDS011;556;53.550;10.048;2022-09-09T05:55:08;7.43;;;5.27;;
1134;SDS011;556;53.550;10.048;2022-09-09T05:57:35;8.23;;;5.50;;
1134;SDS011;556;53.550;10.048;2022-09-09T06:00:03;6.50;;;5.70;;
1134;SDS011;556;53.550;10.048;2022-09-09T06:02:39;16.17;;;8.33;;
1134;SDS011;556;53.550;10.048;2022-09-09T06:05:09;6.97;;;6.37;;
1134;SDS011;556;53.550;10.048;2022-09-09T06:07:39;7.90;;;5.87;;
1134;SDS011;556;53.550;10.048;2022-09-09T06:10:08;10.30;;;5.57;;
1134;SDS011;556;53.550;10.048;2022-09-09T06:12:39;5.33;;;4.80;;
1134;SDS011;556;53.550;10.048;2022-09-09T06:15:07;6.50;;;4.97;;
1134;SDS011;556;53.550;10.048;2022-09-09T06:17:36;5.57;;;3.83;;
1134;SDS011;556;53.550;10.048;2022-09-09T06:20:04;4.13;;;2.83;;
1134;SDS011;556;53.550;10.048;2022-09-09T06:22:34;4.00;;;3.20;;
1134;SDS011;556;53.550;10.048;2022-09-09T06:25:03;6.00;;;3.40;;
1134;SDS011;556;53.550;10.048;2022-09-09T06:27:30;5.30;;;4.00;;
1134;SDS011;556;53.550;10.048;2022-09-09T06:29:58;7.13;;;4.70;;
1134;SDS011;556;53.550;10.048;2022-09-09T06:32:29;7.83;;;4.70;;
1134;SDS011;556;53.550;10.048;2022-09-09T06:34:59;3.97;;;3.57;;
1134;SDS011;556;53.550;10.048;2022-09-09T06:37:26;3.50;;;3.20;;
1134;SDS011;556;53.550;10.048;2022-09-09T06:39:54;3.67;;;3.40;;
1134;SDS011;556;53.550;10.048;2022-09-09T06:42:23;4.30;;;3.90;;
1134;SDS011;556;53.550;10.048;2022-09-09T06:44:50;2.80;;;2.60;;
1134;SDS011;556;53.550;10.048;2022-09-09T06:47:25;4.73;;;4.20;;
1134;SDS011;556;53.550;10.048;2022-09-09T06:49:57;4.63;;;4.23;;
1134;SDS011;556;53.550;10.048;2022-09-09T06:52:25;3.10;;;2.90;;
1134;SDS011;556;53.550;10.048;2022-09-09T06:54:54;3.47;;;3.17;;
1134;SDS011;556;53.550;10.048;2022-09-09T06:57:25;3.83;;;3.20;;
1134;SDS011;556;53.550;10.048;2022-09-09T06:59:52;2.97;;;2.73;;
1134;SDS011;556;53.550;10.048;2022-09-09T07:02:19;3.90;;;3.60;;
1134;SDS011;556;53.550;10.048;2022-09-09T07:04:47;3.30;;;3.10;;
1134;SDS011;556;53.550;10.048;2022-09-09T07:07:15;8.17;;;4.80;;
1134;SDS011;556;53.550;10.048;2022-09-09T07:09:43;3.17;;;2.97;;
1134;SDS011;556;53.550;10.048;2022-09-09T07:12:10;4.70;;;3.30;;
1134;SDS011;556;53.550;10.048;2022-09-09T07:14:45;2.70;;;2.50;;
1134;SDS011;556;53.550;10.048;2022-09-09T07:17:13;2.57;;;2.37;;
1134;SDS011;556;53.550;10.048;2022-09-09T07:19:40;3.00;;;2.70;;
1134;SDS011;556;53.550;10.048;2022-09-09T07:22:08;3.40;;;2.30;;
1134;SDS011;556;53.550;10.048;2022-09-09T07:24:36;2.97;;;2.77;;
1134;SDS011;556;53.550;10.048;2022-09-09T07:27:03;2.73;;;2.53;;
1134;SDS011;556;53.550;10.048;2022-09-09T07:29:31;4.37;;;3.40;;
1134;SDS011;556;53.550;10.048;2022-09-09T07:32:02;2.30;;;2.13;;
1134;SDS011;556;53.550;10.048;2022-09-09T07:34:34;3.70;;;3.40;;
1134;SDS011;556;53.550;10.048;2022-09-09T07:37:01;3.63;;;3.20;;
1134;SDS011;556;53.550;10.048;2022-09-09T07:39:29;2.53;;;2.33;;
1134;SDS011;556;53.550;10.048;2022-09-09T07:41:56;4.03;;;2.53;;
1134;SDS011;556;53.550;10.048;2022-09-09T07:44:24;2.60;;;2.40;;
1134;SDS011;556;53.550;10.048;2022-09-09T07:47:06;5.93;;;3.90;;
1134;SDS011;556;53.550;10.048;2022-09-09T07:49:38;2.93;;;2.53;;
1134;SDS011;556;53.550;10.048;2022-09-09T07:52:07;2.87;;;2.67;;
1134;SDS011;556;53.550;10.048;2022-09-09T07:54:37;2.67;;;1.90;;
1134;SDS011;556;53.550;10.048;2022-09-09T07:57:05;4.80;;;3.40;;
1134;SDS011;556;53.550;10.048;2022-09-09T07:59:35;4.67;;;2.33;;
1134;SDS011;556;53.550;10.048;2022-09-09T08:02:02;3.13;;;2.70;;
1134;SDS011;556;53.550;10.048;2022-09-09T08:04:34;3.00;;;2.63;;
1134;SDS011;556;53.550;10.048;2022-09-09T08:07:02;6.13;;;3.20;;
1134;SDS011;556;53.550;10.048;2022-09-09T08:09:34;3.33;;;3.03;;
1134;SDS011;556;53.550;10.048;2022-09-09T08:12:07;1.80;;;1.67;;
1134;SDS011;556;53.550;10.048;2022-09-09T08:14:34;3.03;;;1.60;;
1134;SDS011;556;53.550;10.048;2022-09-09T08:17:01;2.30;;;2.20;;
1134;SDS011;556;53.550;10.048;2022-09-09T08:19:32;2.37;;;2.17;;
1134;SDS011;556;53.550;10.048;2022-09-09T08:22:03;3.43;;;3.13;;
1134;SDS011;556;53.550;10.048;2022-09-09T08:24:32;1.67;;;1.37;;
1134;SDS011;556;53.550;10.048;2022-09-09T08:26:59;2.50;;;1.67;;
1134;SDS011;556;53.550;10.048;2022-09-09T08:29:27;7.13;;;2.30;;
1134;SDS011;556;53.550;10.048;2022-09-09T08:31:56;4.80;;;1.70;;
1134;SDS011;556;53.550;10.048;2022-09-09T08:34:25;1.37;;;1.27;;
1134;SDS011;556;53.550;10.048;2022-09-09T08:36:54;3.33;;;3.10;;
1134;SDS011;556;53.550;10.048;2022-09-09T08:39:29;2.40;;;1.77;;
1134;SDS011;556;53.550;10.048;2022-09-09T08:42:10;2.40;;;1.83;;
1134;SDS011;556;53.550;10.048;2022-09-09T08:45:10;2.43;;;2.00;;
1134;SDS011;556;53.550;10.048;2022-09-09T08:48:01;2.33;;;2.13;;
1134;SDS011;556;53.550;10.048;2022-09-09T08:50:36;3.47;;;2.47;;
1134;SDS011;556;53.550;10.048;2022-09-09T08:53:17;11.83;;;2.50;;
1134;SDS011;556;53.550;10.048;2022-09-09T08:55:50;5.50;;;2.33;;
1134;SDS011;556;53.550;10.048;2022-09-09T08:58:26;1.77;;;1.63;;
1134;SDS011;556;53.550;10.048;2022-09-09T09:01:02;1.73;;;1.63;;
1134;SDS011;556;53.550;10.048;2022-09-09T09:03:48;1.50;;;1.37;;
1134;SDS011;556;53.550;10.048;2022-09-09T09:06:26;6.77;;;2.67;;
1134;SDS011;556;53.550;10.048;2022-09-09T09:09:08;2.60;;;2.40;;
1134;SDS011;556;53.550;10.048;2022-09-09T09:11:43;4.53;;;1.90;;
1134;SDS011;556;53.550;10.048;2022-09-09T09:14:16;2.43;;;2.20;;
1134;SDS011;556;53.550;10.048;2022-09-09T09:16:51;5.00;;;1.93;;
1134;SDS011;556;53.550;10.048;2022-09-09T09:19:21;4.80;;;2.47;;
1134;SDS011;556;53.550;10.048;2022-09-09T09:21:52;7.00;;;2.13;;
1134;SDS011;556;53.550;10.048;2022-09-09T09:24:26;2.57;;;2.37;;
1134;SDS011;556;53.550;10.048;2022-09-09T09:27:00;1.87;;;1.73;;
1134;SDS011;556;53.550;10.048;2022-09-09T09:29:39;1.87;;;1.77;;
1134;SDS011;556;53.550;10.048;2022-09-09T09:32:10;16.23;;;2.20;;
1134;SDS011;556;53.550;10.048;2022-09-09T09:34:40;1.90;;;1.80;;
1134;SDS011;556;53.550;10.048;2022-09-09T09:37:12;3.00;;;1.47;;
1134;SDS011;556;53.550;10.048;2022-09-09T09:39:45;1.40;;;1.30;;
1134;SDS011;556;53.550;10.048;2022-09-09T09:42:15;2.47;;;2.00;;
1134;SDS011;556;53.550;10.048;2022-09-09T09:44:47;4.83;;;2.70;;
1134;SDS011;556;53.550;10.048;2022-09-09T09:47:18;2.17;;;2.07;;
1134;SDS011;556;53.550;10.048;2022-09-09T09:49:54;3.50;;;1.87;;
1134;SDS011;556;53.550;10.048;2022-09-09T09:52:25;1.40;;;1.30;;
1134;SDS011;556;53.550;10.048;2022-09-09T09:54:54;1.30;;;1.20;;
1134;SDS011;556;53.550;10.048;2022-09-09T09:57:26;2.43;;;2.23;;
1134;SDS011;556;53.550;10.048;2022-09-09T10:00:12;2.20;;;1.20;;
1134;SDS011;556;53.550;10.048;2022-09-09T10:02:47;7.50;;;3.20;;
1134;SDS011;556;53.550;10.048;2022-09-09T10:05:21;1.43;;;1.33;;
1134;SDS011;556;53.550;10.048;2022-09-09T10:08:00;1.83;;;1.73;;
1134;SDS011;556;53.550;10.048;2022-09-09T10:10:37;1.73;;;1.07;;
1134;SDS011;556;53.550;10.048;2022-09-09T10:13:18;2.17;;;1.60;;
1134;SDS011;556;53.550;10.048;2022-09-09T10:15:54;1.40;;;1.30;;
1134;SDS011;556;53.550;10.048;2022-09-09T10:18:36;3.27;;;2.90;;
1134;SDS011;556;53.550;10.048;2022-09-09T10:21:16;1.93;;;1.80;;
1134;SDS011;556;53.550;10.048;2022-09-09T10:23:55;2.93;;;2.70;;
1134;SDS011;556;53.550;10.048;2022-09-09T10:26:35;2.57;;;2.37;;
1134;SDS011;556;53.550;10.048;2022-09-09T10:29:19;2.17;;;2.07;;
1134;SDS011;556;53.550;10.048;2022-09-09T10:32:02;3.40;;;2.37;;
1134;SDS011;556;53.550;10.048;2022-09-09T10:34:46;2.90;;;2.33;;
1134;SDS011;556;53.550;10.048;2022-09-09T10:37:24;2.83;;;2.57;;
1134;SDS011;556;53.550;10.048;2022-09-09T10:40:08;1.90;;;1.50;;
1134;SDS011;556;53.550;10.048;2022-09-09T10:42:46;1.20;;;1.10;;
1134;SDS011;556;53.550;10.048;2022-09-09T10:45:17;3.90;;;1.40;;
1134;SDS011;556;53.550;10.048;2022-09-09T10:50:50;2.80;;;0.77;;
1134;SDS011;556;53.550;10.048;2022-09-09T10:53:24;4.90;;;4.50;;
1134;SDS011;556;53.550;10.048;2022-09-09T10:56:01;3.30;;;2.70;;
1134;SDS011;556;53.550;10.048;2022-09-09T10:58:35;1.03;;;0.93;;
1134;SDS011;556;53.550;10.048;2022-09-09T11:01:11;2.73;;;1.17;;
1134;SDS011;556;53.550;10.048;2022-09-09T11:03:43;1.30;;;1.20;;
1134;SDS011;556;53.550;10.048;2022-09-09T11:06:16;1.10;;;1.00;;
1134;SDS011;556;53.550;10.048;2022-09-09T11:08:48;6.10;;;1.50;;
1134;SDS011;556;53.550;10.048;2022-09-09T11:11:21;1.83;;;1.73;;
1134;SDS011;556;53.550;10.048;2022-09-09T11:13:55;1.23;;;1.13;;
1134;SDS011;556;53.550;10.048;2022-09-09T11:16:30;3.63;;;1.60;;
1134;SDS011;556;53.550;10.048;2022-09-09T11:19:11;1.30;;;1.10;;
1134;SDS011;556;53.550;10.048;2022-09-09T11:21:44;1.10;;;1.10;;
1134;SDS011;556;53.550;10.048;2022-09-09T11:24:13;3.43;;;1.50;;
1134;SDS011;556;53.550;10.048;2022-09-09T11:26:49;1.80;;;1.20;;
1134;SDS011;556;53.550;10.048;2022-09-09T11:32:22;1.00;;;1.00;;
1134;SDS011;556;53.550;10.048;2022-09-09T11:35:01;1.83;;;1.07;;
1134;SDS011;556;53.550;10.048;2022-09-09T11:37:43;2.17;;;1.40;;
1134;SDS011;556;53.550;10.048;2022-09-09T11:40:27;2.20;;;1.77;;
1134;SDS011;556;53.550;10.048;2022-09-09T11:43:04;1.90;;;1.70;;
1134;SDS011;556;53.550;10.048;2022-09-09T11:45:38;1.40;;;1.30;;
1134;SDS011;556;53.550;10.048;2022-09-09T11:48:22;2.57;;;1.03;;
1134;SDS011;556;53.550;10.048;2022-09-09T11:50:58;2.03;;;1.83;;
1134;SDS011;556;53.550;10.048;2022-09-09T11:53:28;1.77;;;1.23;;
1134;SDS011;556;53.550;10.048;2022-09-09T11:58:55;3.80;;;1.17;;
1134;SDS011;556;53.550;10.048;2022-09-09T12:01:36;1.90;;;1.80;;
1134;SDS011;556;53.550;10.048;2022-09-09T12:04:11;1.97;;;1.87;;
1134;SDS011;556;53.550;10.048;2022-09-09T12:06:46;1.80;;;1.70;;
1134;SDS011;556;53.550;10.048;2022-09-09T12:09:18;2.97;;;1.63;;
1134;SDS011;556;53.550;10.048;2022-09-09T12:11:49;3.63;;;1.30;;
1134;SDS011;556;53.550;10.048;2022-09-09T12:14:20;2.37;;;1.60;;
1134;SDS011;556;53.550;10.048;2022-09-09T12:16:49;1.90;;;1.77;;
1134;SDS011;556;53.550;10.048;2022-09-09T12:19:19;1.50;;;1.40;;
1134;SDS011;556;53.550;10.048;2022-09-09T12:21:50;2.20;;;2.00;;
1134;SDS011;556;53.550;10.048;2022-09-09T12:24:23;2.90;;;1.70;;
1134;SDS011;556;53.550;10.048;2022-09-09T12:26:58;2.90;;;1.70;;
1134;SDS011;556;53.550;10.048;2022-09-09T12:29:33;2.47;;;1.70;;
1134;SDS011;556;53.550;10.048;2022-09-09T12:32:09;2.20;;;1.87;;
1134;SDS011;556;53.550;10.048;2022-09-09T12:34:40;2.80;;;1.70;;
1134;SDS011;556;53.550;10.048;2022-09-09T12:37:13;1.80;;;1.70;;
1134;SDS011;556;53.550;10.048;2022-09-09T12:39:45;1.40;;;1.30;;
1134;SDS011;556;53.550;10.048;2022-09-09T12:42:17;1.63;;;1.50;;
1134;SDS011;556;53.550;10.048;2022-09-09T12:44:52;1.80;;;1.70;;
1134;SDS011;556;53.550;10.048;2022-09-09T12:47:20;1.77;;;1.67;;
1134;SDS011;556;53.550;10.048;2022-09-09T12:49:54;1.63;;;1.50;;
1134;SDS011;556;53.550;10.048;2022-09-09T12:52:24;1.50;;;1.40;;
1134;SDS011;556;53.550;10.048;2022-09-09T12:54:55;9.93;;;2.00;;
1134;SDS011;556;53.550;10.048;2022-09-09T12:57:24;4.53;;;2.20;;
1134;SDS011;556;53.550;10.048;2022-09-09T13:00:03;4.10;;;2.77;;
1134;SDS011;556;53.550;10.048;2022-09-09T13:02:34;3.23;;;2.93;;
1134;SDS011;556;53.550;10.048;2022-09-09T13:05:14;2.97;;;2.57;;
1134;SDS011;556;53.550;10.048;2022-09-09T13:07:43;5.83;;;2.70;;
1134;SDS011;556;53.550;10.048;2022-09-09T13:10:10;2.20;;;2.10;;
1134;SDS011;556;53.550;10.048;2022-09-09T13:12:39;2.10;;;2.00;;
1134;SDS011;556;53.550;10.048;2022-09-09T13:15:10;2.20;;;1.93;;
1134;SDS011;556;53.550;10.048;2022-09-09T13:17:49;3.00;;;2.80;;
1134;SDS011;556;53.550;10.048;2022-09-09T13:20:20;3.10;;;2.80;;
1134;SDS011;556;53.550;10.048;2022-09-09T13:22:49;2.33;;;2.13;;
1134;SDS011;556;53.550;10.048;2022-09-09T13:25:19;2.80;;;1.90;;
1134;SDS011;556;53.550;10.048;2022-09-09T13:27:51;3.77;;;2.37;;
1134;SDS011;556;53.550;10.048;2022-09-09T13:30:21;2.30;;;2.10;;
1134;SDS011;556;53.550;10.048;2022-09-09T13:33:00;2.13;;;2.00;;
1134;SDS011;556;53.550;10.048;2022-09-09T13:35:30;3.33;;;1.97;;
1134;SDS011;556;53.550;10.048;2022-09-09T13:37:59;10.10;;;5.60;;
1134;SDS011;556;53.550;10.048;2022-09-09T13:40:34;3.37;;;3.07;;
1134;SDS011;556;53.550;10.048;2022-09-09T13:43:02;3.50;;;3.20;;
1134;SDS011;556;53.550;10.048;2022-09-09T13:45:30;3.23;;;2.93;;
1134;SDS011;556;53.550;10.048;2022-09-09T13:48:08;2.50;;;2.30;;
1134;SDS011;556;53.550;10.048;2022-09-09T13:50:37;3.13;;;2.93;;
1134;SDS011;556;53.550;10.048;2022-09-09T13:53:06;3.33;;;3.10;;
1134;SDS011;556;53.550;10.048;2022-09-09T13:55:36;4.03;;;3.43;;
1134;SDS011;556;53.550;10.048;2022-09-09T13:58:04;2.63;;;2.40;;
1134;SDS011;556;53.550;10.048;2022-09-09T14:00:34;4.00;;;3.10;;
1134;SDS011;556;53.550;10.048;2022-09-09T14:03:09;4.17;;;3.87;;
1134;SDS011;556;53.550;10.048;2022-09-09T14:05:38;4.67;;;3.00;;
1134;SDS011;556;53.550;10.048;2022-09-09T14:08:05;3.77;;;3.10;;
1134;SDS011;556;53.550;10.048;2022-09-09T14:10:33;2.27;;;2.17;;
1134;SDS011;556;53.550;10.048;2022-09-09T14:13:03;3.87;;;2.60;;
1134;SDS011;556;53.550;10.048;2022-09-09T14:15:30;4.03;;;2.93;;
1134;SDS011;556;53.550;10.048;2022-09-09T14:17:57;5.20;;;3.00;;
1134;SDS011;556;53.550;10.048;2022-09-09T14:20:24;3.03;;;2.73;;
1134;SDS011;556;53.550;10.048;2022-09-09T14:22:53;2.73;;;2.23;;
1134;SDS011;556;53.550;10.048;2022-09-09T14:25:20;2.00;;;1.90;;
1134;SDS011;556;53.550;10.048;2022-09-09T14:27:47;2.23;;;2.03;;
1134;SDS011;556;53.550;10.048;2022-09-09T14:30:16;1.60;;;1.50;;
1134;SDS011;556;53.550;10.048;2022-09-09T14:32:44;3.87;;;1.50;;
1134;SDS011;556;53.550;10.048;2022-09-09T14:35:12;1.73;;;1.63;;
1134;SDS011;556;53.550;10.048;2022-09-09T14:37:39;2.50;;;1.90;;
1134;SDS011;556;53.550;10.048;2022-09-09T14:40:08;2.10;;;2.00;;
1134;SDS011;556;53.550;10.048;2022-09-09T14:42:36;1.60;;;1.50;;
1134;SDS011;556;53.550;10.048;2022-09-09T14:45:04;2.10;;;1.87;;
1134;SDS011;556;53.550;10.048;2022-09-09T14:47:32;1.40;;;1.30;;
1134;SDS011;556;53.550;10.048;2022-09-09T14:49:59;1.80;;;1.70;;
1134;SDS011;556;53.550;10.048;2022-09-09T14:52:29;2.50;;;2.30;;
1134;SDS011;556;53.550;10.048;2022-09-09T14:54:56;1.83;;;1.73;;
1134;SDS011;556;53.550;10.048;2022-09-09T14:57:25;1.10;;;1.10;;
1134;SDS011;556;53.550;10.048;2022-09-09T14:59:52;2.97;;;1.60;;
1134;SDS011;556;53.550;10.048;2022-09-09T15:02:19;3.53;;;2.43;;
1134;SDS011;556;53.550;10.048;2022-09-09T15:04:46;2.47;;;2.27;;
1134;SDS011;556;53.550;10.048;2022-09-09T15:07:15;1.80;;;1.70;;
1134;SDS011;556;53.550;10.048;2022-09-09T15:09:44;2.70;;;2.33;;
1134;SDS011;556;53.550;10.048;2022-09-09T15:12:12;2.90;;;2.10;;
1134;SDS011;556;53.550;10.048;2022-09-09T15:14:42;1.63;;;1.53;;
1134;SDS011;556;53.550;10.048;2022-09-09T15:17:09;2.13;;;1.97;;
1134;SDS011;556;53.550;10.048;2022-09-09T15:19:36;2.90;;;2.70;;
1134;SDS011;556;53.550;10.048;2022-09-09T15:22:04;2.30;;;1.93;;
1134;SDS011;556;53.550;10.048;2022-09-09T15:24:32;4.10;;;2.23;;
1134;SDS011;556;53.550;10.048;2022-09-09T15:27:00;3.70;;;2.63;;
1134;SDS011;556;53.550;10.048;2022-09-09T15:29:27;5.70;;;4.80;;
1134;SDS011;556;53.550;10.048;2022-09-09T15:31:56;4.23;;;2.33;;
1134;SDS011;556;53.550;10.048;2022-09-09T15:34:23;2.73;;;2.20;;
1134;SDS011;556;53.550;10.048;2022-09-09T15:36:50;7.83;;;3.60;;
1134;SDS011;556;53.550;10.048;2022-09-09T15:39:17;2.83;;;2.33;;
1134;SDS011;556;53.550;10.048;2022-09-09T15:41:45;5.50;;;5.00;;
1134;SDS011;556;53.550;10.048;2022-09-09T15:44:13;3.67;;;3.00;;
1134;SDS011;556;53.550;10.048;2022-09-09T15:46:42;2.40;;;2.20;;
1134;SDS011;556;53.550;10.048;2022-09-09T15:49:12;2.10;;;2.00;;